sensor_id;sensor_type;location;lat;lon;timestamp;temperature;humidity
24452;DHT22;13350;50.984;5.822;2023-03-23T00:01:28;12.60;99.90
24452;DHT22;13350;50.984;5.822;2023-03-23T00:03:57;12.70;99.90
24452;DHT22;13350;50.984;5.822;2023-03-23T00:06:27;12.80;99.90
24452;DHT22;13350;50.984;5.822;2023-03-23T00:09:00;12.80;99.90
24452;DHT22;13350;50.984;5.822;2023-03-23T00:11:30;12.70;99.90
24452;DHT22;13350;50.984;5.822;2023-03-23T00:13:59;12.70;99.90
24452;DHT22;13350;50.984;5.822;2023-03-23T00:16:29;12.70;99.90
24452;DHT22;13350;50.984;5.822;2023-03-23T00:18:59;12.70;99.90
24452;DHT22;13350;50.984;5.822;2023-03-23T00:21:30;12.70;99.90
24452;DHT22;13350;50.984;5.822;2023-03-23T00:24:03;12.70;99.90
24452;DHT22;13350;50.984;5.822;2023-03-23T00:26:32;12.70;99.90
24452;DHT22;13350;50.984;5.822;2023-03-23T00:29:01;12.80;99.90
24452;DHT22;13350;50.984;5.822;2023-03-23T00:31:28;12.80;99.90
24452;DHT22;13350;50.984;5.822;2023-03-23T00:34:03;12.80;99.90
24452;DHT22;13350;50.984;5.822;2023-03-23T00:36:33;12.80;99.90
24452;DHT22;13350;50.984;5.822;2023-03-23T00:39:01;12.80;99.90
24452;DHT22;13350;50.984;5.822;2023-03-23T00:41:29;12.80;99.90
24452;DHT22;13350;50.984;5.822;2023-03-23T00:43:58;12.90;99.90
24452;DHT22;13350;50.984;5.822;2023-03-23T00:46:27;12.80;99.90
24452;DHT22;13350;50.984;5.822;2023-03-23T00:48:55;12.80;99.90
24452;DHT22;13350;50.984;5.822;2023-03-23T00:51:23;12.80;99.90
24452;DHT22;13350;50.984;5.822;2023-03-23T00:53:51;12.90;99.90
24452;DHT22;13350;50.984;5.822;2023-03-23T00:56:19;12.90;99.90
24452;DHT22;13350;50.984;5.822;2023-03-23T00:58:46;12.90;99.90
24452;DHT22;13350;50.984;5.822;2023-03-23T01:01:14;12.90;99.90
24452;DHT22;13350;50.984;5.822;2023-03-23T01:03:41;12.90;99.90
24452;DHT22;13350;50.984;5.822;2023-03-23T01:06:11;12.80;99.90
24452;DHT22;13350;50.984;5.822;2023-03-23T01:08:39;12.80;99.90
24452;DHT22;13350;50.984;5.822;2023-03-23T01:11:13;12.70;99.90
24452;DHT22;13350;50.984;5.822;2023-03-23T01:13:41;12.70;99.90
24452;DHT22;13350;50.984;5.822;2023-03-23T01:16:09;12.60;99.90
24452;DHT22;13350;50.984;5.822;2023-03-23T01:18:37;12.60;99.90
24452;DHT22;13350;50.984;5.822;2023-03-23T01:21:05;12.60;99.90
24452;DHT22;13350;50.984;5.822;2023-03-23T01:23:33;12.50;99.90
24452;DHT22;13350;50.984;5.822;2023-03-23T01:26:03;12.50;99.90
24452;DHT22;13350;50.984;5.822;2023-03-23T01:28:32;12.40;99.90
24452;DHT22;13350;50.984;5.822;2023-03-23T01:31:01;12.40;99.90
24452;DHT22;13350;50.984;5.822;2023-03-23T01:33:28;12.40;99.90
24452;DHT22;13350;50.984;5.822;2023-03-23T01:35:56;12.40;99.90
24452;DHT22;13350;50.984;5.822;2023-03-23T01:38:23;12.40;99.90
24452;DHT22;13350;50.984;5.822;2023-03-23T01:40:51;12.30;99.90
24452;DHT22;13350;50.984;5.822;2023-03-23T01:43:18;12.30;99.90
24452;DHT22;13350;50.984;5.822;2023-03-23T01:45:47;12.30;99.90
24452;DHT22;13350;50.984;5.822;2023-03-23T01:48:18;12.30;99.90
24452;DHT22;13350;50.984;5.822;2023-03-23T01:50:52;12.20;99.90
24452;DHT22;13350;50.984;5.822;2023-03-23T01:53:22;12.20;99.90
24452;DHT22;13350;50.984;5.822;2023-03-23T01:55:53;12.20;99.90
24452;DHT22;13350;50.984;5.822;2023-03-23T01:58:28;12.20;99.90
24452;DHT22;13350;50.984;5.822;2023-03-23T02:01:02;12.20;99.90
24452;DHT22;13350;50.984;5.822;2023-03-23T02:03:31;12.20;99.90
24452;DHT22;13350;50.984;5.822;2023-03-23T02:05:59;12.20;99.90
24452;DHT22;13350;50.984;5.822;2023-03-23T02:08:27;12.20;99.90
24452;DHT22;13350;50.984;5.822;2023-03-23T02:10:56;12.20;99.90
24452;DHT22;13350;50.984;5.822;2023-03-23T02:13:23;12.50;99.90
24452;DHT22;13350;50.984;5.822;2023-03-23T02:15:59;12.60;99.90
24452;DHT22;13350;50.984;5.822;2023-03-23T02:18:37;12.60;99.90
24452;DHT22;13350;50.984;5.822;2023-03-23T02:21:25;12.70;99.90
24452;DHT22;13350;50.984;5.822;2023-03-23T02:24:26;12.50;99.90
24452;DHT22;13350;50.984;5.822;2023-03-23T02:26:59;12.50;99.90
24452;DHT22;13350;50.984;5.822;2023-03-23T02:29:46;12.40;99.90
24452;DHT22;13350;50.984;5.822;2023-03-23T02:32:31;12.40;99.90
24452;DHT22;13350;50.984;5.822;2023-03-23T02:35:09;12.40;99.90
24452;DHT22;13350;50.984;5.822;2023-03-23T02:37:43;12.50;99.90
24452;DHT22;13350;50.984;5.822;2023-03-23T02:40:15;12.50;99.90
24452;DHT22;13350;50.984;5.822;2023-03-23T02:42:47;12.40;99.90
24452;DHT22;13350;50.984;5.822;2023-03-23T02:45:17;12.40;99.90
24452;DHT22;13350;50.984;5.822;2023-03-23T02:47:49;12.40;99.90
24452;DHT22;13350;50.984;5.822;2023-03-23T02:50:21;12.40;99.90
24452;DHT22;13350;50.984;5.822;2023-03-23T02:52:50;12.40;99.90
24452;DHT22;13350;50.984;5.822;2023-03-23T02:55:18;12.30;99.90
24452;DHT22;13350;50.984;5.822;2023-03-23T02:57:46;12.40;99.90
24452;DHT22;13350;50.984;5.822;2023-03-23T03:00:16;12.40;99.90
24452;DHT22;13350;50.984;5.822;2023-03-23T03:02:45;12.40;99.90
24452;DHT22;13350;50.984;5.822;2023-03-23T03:05:28;12.40;99.90
24452;DHT22;13350;50.984;5.822;2023-03-23T03:08:06;12.40;99.90
24452;DHT22;13350;50.984;5.822;2023-03-23T03:10:40;12.40;99.90
24452;DHT22;13350;50.984;5.822;2023-03-23T03:13:14;12.30;99.90
24452;DHT22;13350;50.984;5.822;2023-03-23T03:15:47;12.40;99.90
24452;DHT22;13350;50.984;5.822;2023-03-23T03:18:20;12.40;99.90
24452;DHT22;13350;50.984;5.822;2023-03-23T03:20:53;12.40;99.90
24452;DHT22;13350;50.984;5.822;2023-03-23T03:23:23;12.40;99.90
24452;DHT22;13350;50.984;5.822;2023-03-23T03:25:51;12.40;99.90
24452;DHT22;13350;50.984;5.822;2023-03-23T03:28:20;12.50;99.90
24452;DHT22;13350;50.984;5.822;2023-03-23T03:30:51;12.50;99.90
24452;DHT22;13350;50.984;5.822;2023-03-23T03:33:20;12.50;99.90
24452;DHT22;13350;50.984;5.822;2023-03-23T03:35:54;12.40;99.90
24452;DHT22;13350;50.984;5.822;2023-03-23T03:38:21;12.50;99.90
24452;DHT22;13350;50.984;5.822;2023-03-23T03:40:49;12.50;99.90
24452;DHT22;13350;50.984;5.822;2023-03-23T03:43:16;12.50;99.90
24452;DHT22;13350;50.984;5.822;2023-03-23T03:45:44;12.60;99.90
24452;DHT22;13350;50.984;5.822;2023-03-23T03:48:12;12.60;99.90
24452;DHT22;13350;50.984;5.822;2023-03-23T03:50:39;12.60;99.90
24452;DHT22;13350;50.984;5.822;2023-03-23T03:53:08;12.60;99.90
24452;DHT22;13350;50.984;5.822;2023-03-23T03:55:35;12.60;99.90
24452;DHT22;13350;50.984;5.822;2023-03-23T03:58:04;12.60;99.90
24452;DHT22;13350;50.984;5.822;2023-03-23T04:00:33;12.60;99.90
24452;DHT22;13350;50.984;5.822;2023-03-23T04:03:00;12.60;99.90
24452;DHT22;13350;50.984;5.822;2023-03-23T04:05:27;12.60;99.90
24452;DHT22;13350;50.984;5.822;2023-03-23T04:07:55;12.60;99.90
24452;DHT22;13350;50.984;5.822;2023-03-23T04:10:29;12.70;99.90
24452;DHT22;13350;50.984;5.822;2023-03-23T04:12:56;12.60;99.90
24452;DHT22;13350;50.984;5.822;2023-03-23T04:15:24;12.50;99.90
24452;DHT22;13350;50.984;5.822;2023-03-23T04:17:51;12.60;99.90
24452;DHT22;13350;50.984;5.822;2023-03-23T04:20:19;12.50;99.90
24452;DHT22;13350;50.984;5.822;2023-03-23T04:22:47;12.50;99.90
24452;DHT22;13350;50.984;5.822;2023-03-23T04:25:17;12.50;99.90
24452;DHT22;13350;50.984;5.822;2023-03-23T04:27:48;12.60;99.90
24452;DHT22;13350;50.984;5.822;2023-03-23T04:30:19;12.50;99.90
24452;DHT22;13350;50.984;5.822;2023-03-23T04:32:47;12.60;99.90
24452;DHT22;13350;50.984;5.822;2023-03-23T04:35:17;12.60;99.90
24452;DHT22;13350;50.984;5.822;2023-03-23T04:37:45;12.60;99.90
24452;DHT22;13350;50.984;5.822;2023-03-23T04:40:13;12.50;99.90
24452;DHT22;13350;50.984;5.822;2023-03-23T04:42:41;12.60;99.90
24452;DHT22;13350;50.984;5.822;2023-03-23T04:45:14;12.50;99.90
24452;DHT22;13350;50.984;5.822;2023-03-23T04:47:42;12.40;99.90
24452;DHT22;13350;50.984;5.822;2023-03-23T04:50:19;12.50;99.90
24452;DHT22;13350;50.984;5.822;2023-03-23T04:52:47;12.50;99.90
24452;DHT22;13350;50.984;5.822;2023-03-23T04:55:17;12.50;99.90
24452;DHT22;13350;50.984;5.822;2023-03-23T04:57:45;12.50;99.90
24452;DHT22;13350;50.984;5.822;2023-03-23T05:00:14;12.60;99.90
24452;DHT22;13350;50.984;5.822;2023-03-23T05:02:43;12.50;99.90
24452;DHT22;13350;50.984;5.822;2023-03-23T05:05:14;12.40;99.90
24452;DHT22;13350;50.984;5.822;2023-03-23T05:07:42;12.50;99.90
24452;DHT22;13350;50.984;5.822;2023-03-23T05:10:11;12.50;99.90
24452;DHT22;13350;50.984;5.822;2023-03-23T05:12:39;12.50;99.90
24452;DHT22;13350;50.984;5.822;2023-03-23T05:15:07;12.50;99.90
24452;DHT22;13350;50.984;5.822;2023-03-23T05:17:37;12.50;99.90
24452;DHT22;13350;50.984;5.822;2023-03-23T05:20:05;12.60;99.90
24452;DHT22;13350;50.984;5.822;2023-03-23T05:22:36;12.50;99.90
24452;DHT22;13350;50.984;5.822;2023-03-23T05:25:04;12.50;99.90
24452;DHT22;13350;50.984;5.822;2023-03-23T05:27:34;12.50;99.90
24452;DHT22;13350;50.984;5.822;2023-03-23T05:30:03;12.50;99.90
24452;DHT22;13350;50.984;5.822;2023-03-23T05:32:30;12.60;99.90
24452;DHT22;13350;50.984;5.822;2023-03-23T05:35:00;12.50;99.90
24452;DHT22;13350;50.984;5.822;2023-03-23T05:37:28;12.50;99.90
24452;DHT22;13350;50.984;5.822;2023-03-23T05:39:58;12.50;99.90
24452;DHT22;13350;50.984;5.822;2023-03-23T05:42:29;12.50;99.90
24452;DHT22;13350;50.984;5.822;2023-03-23T05:44:56;12.50;99.90
24452;DHT22;13350;50.984;5.822;2023-03-23T05:47:24;12.50;99.90
24452;DHT22;13350;50.984;5.822;2023-03-23T05:49:52;12.50;99.90
24452;DHT22;13350;50.984;5.822;2023-03-23T05:52:21;12.50;99.90
24452;DHT22;13350;50.984;5.822;2023-03-23T05:54:49;12.40;99.90
24452;DHT22;13350;50.984;5.822;2023-03-23T05:57:17;12.40;99.90
24452;DHT22;13350;50.984;5.822;2023-03-23T05:59:47;12.40;99.90
24452;DHT22;13350;50.984;5.822;2023-03-23T06:02:15;12.40;99.90
24452;DHT22;13350;50.984;5.822;2023-03-23T06:04:42;12.40;99.90
24452;DHT22;13350;50.984;5.822;2023-03-23T06:07:10;12.30;99.90
24452;DHT22;13350;50.984;5.822;2023-03-23T06:09:41;12.30;99.90
24452;DHT22;13350;50.984;5.822;2023-03-23T06:12:09;12.40;99.90
24452;DHT22;13350;50.984;5.822;2023-03-23T06:14:37;12.40;99.90
24452;DHT22;13350;50.984;5.822;2023-03-23T06:17:04;12.40;99.90
24452;DHT22;13350;50.984;5.822;2023-03-23T06:19:31;12.50;99.90
24452;DHT22;13350;50.984;5.822;2023-03-23T06:22:00;12.40;99.90
24452;DHT22;13350;50.984;5.822;2023-03-23T06:24:28;12.40;99.90
24452;DHT22;13350;50.984;5.822;2023-03-23T06:26:56;12.40;99.90
24452;DHT22;13350;50.984;5.822;2023-03-23T06:29:24;12.50;99.90
24452;DHT22;13350;50.984;5.822;2023-03-23T06:31:54;12.50;99.90
24452;DHT22;13350;50.984;5.822;2023-03-23T06:34:22;12.60;99.90
24452;DHT22;13350;50.984;5.822;2023-03-23T06:36:50;12.60;99.90
24452;DHT22;13350;50.984;5.822;2023-03-23T06:39:17;12.60;99.90
24452;DHT22;13350;50.984;5.822;2023-03-23T06:41:44;12.50;99.90
24452;DHT22;13350;50.984;5.822;2023-03-23T06:44:13;12.60;99.90
24452;DHT22;13350;50.984;5.822;2023-03-23T06:46:41;12.60;99.90
24452;DHT22;13350;50.984;5.822;2023-03-23T06:49:08;12.60;99.90
24452;DHT22;13350;50.984;5.822;2023-03-23T06:51:36;12.60;99.90
24452;DHT22;13350;50.984;5.822;2023-03-23T06:54:04;12.60;99.90
24452;DHT22;13350;50.984;5.822;2023-03-23T06:56:31;12.60;99.90
24452;DHT22;13350;50.984;5.822;2023-03-23T06:58:58;12.70;99.90
24452;DHT22;13350;50.984;5.822;2023-03-23T07:01:27;12.80;99.90
24452;DHT22;13350;50.984;5.822;2023-03-23T07:03:55;12.80;99.90
24452;DHT22;13350;50.984;5.822;2023-03-23T07:06:24;12.80;99.90
24452;DHT22;13350;50.984;5.822;2023-03-23T07:08:52;12.80;99.90
24452;DHT22;13350;50.984;5.822;2023-03-23T07:11:19;12.70;99.90
24452;DHT22;13350;50.984;5.822;2023-03-23T07:13:46;12.80;99.90
24452;DHT22;13350;50.984;5.822;2023-03-23T07:16:15;12.80;99.90
24452;DHT22;13350;50.984;5.822;2023-03-23T07:18:44;12.80;99.90
24452;DHT22;13350;50.984;5.822;2023-03-23T07:21:11;12.80;99.90
24452;DHT22;13350;50.984;5.822;2023-03-23T07:23:39;12.80;99.90
24452;DHT22;13350;50.984;5.822;2023-03-23T07:26:06;12.90;99.90
24452;DHT22;13350;50.984;5.822;2023-03-23T07:28:34;12.90;99.90
24452;DHT22;13350;50.984;5.822;2023-03-23T07:31:02;12.90;99.90
24452;DHT22;13350;50.984;5.822;2023-03-23T07:33:29;12.90;99.90
24452;DHT22;13350;50.984;5.822;2023-03-23T07:36:00;13.00;99.90
24452;DHT22;13350;50.984;5.822;2023-03-23T07:38:28;13.00;99.90
24452;DHT22;13350;50.984;5.822;2023-03-23T07:40:55;13.00;99.90
24452;DHT22;13350;50.984;5.822;2023-03-23T07:43:23;13.00;99.90
24452;DHT22;13350;50.984;5.822;2023-03-23T07:45:52;13.00;99.90
24452;DHT22;13350;50.984;5.822;2023-03-23T07:48:19;13.10;99.90
24452;DHT22;13350;50.984;5.822;2023-03-23T07:50:46;13.20;99.90
24452;DHT22;13350;50.984;5.822;2023-03-23T07:53:15;13.10;99.90
24452;DHT22;13350;50.984;5.822;2023-03-23T07:55:42;13.20;99.90
24452;DHT22;13350;50.984;5.822;2023-03-23T07:58:09;13.20;99.90
24452;DHT22;13350;50.984;5.822;2023-03-23T08:00:37;13.20;99.90
24452;DHT22;13350;50.984;5.822;2023-03-23T08:03:05;13.20;99.90
24452;DHT22;13350;50.984;5.822;2023-03-23T08:05:33;13.20;99.90
24452;DHT22;13350;50.984;5.822;2023-03-23T08:08:01;13.20;99.90
24452;DHT22;13350;50.984;5.822;2023-03-23T08:10:29;13.20;99.90
24452;DHT22;13350;50.984;5.822;2023-03-23T08:12:57;13.30;99.90
24452;DHT22;13350;50.984;5.822;2023-03-23T08:15:25;13.20;99.90
24452;DHT22;13350;50.984;5.822;2023-03-23T08:17:53;13.10;99.90
24452;DHT22;13350;50.984;5.822;2023-03-23T08:20:21;13.10;99.90
24452;DHT22;13350;50.984;5.822;2023-03-23T08:22:52;13.30;99.90
24452;DHT22;13350;50.984;5.822;2023-03-23T08:25:21;13.40;99.90
24452;DHT22;13350;50.984;5.822;2023-03-23T08:27:51;13.40;99.90
24452;DHT22;13350;50.984;5.822;2023-03-23T08:30:20;13.40;99.90
24452;DHT22;13350;50.984;5.822;2023-03-23T08:32:49;13.40;99.90
24452;DHT22;13350;50.984;5.822;2023-03-23T08:35:16;13.40;99.90
24452;DHT22;13350;50.984;5.822;2023-03-23T08:37:45;13.30;99.90
24452;DHT22;13350;50.984;5.822;2023-03-23T08:40:17;13.30;99.90
24452;DHT22;13350;50.984;5.822;2023-03-23T08:42:46;13.30;99.90
24452;DHT22;13350;50.984;5.822;2023-03-23T08:45:18;13.30;99.90
24452;DHT22;13350;50.984;5.822;2023-03-23T08:47:46;13.30;99.90
24452;DHT22;13350;50.984;5.822;2023-03-23T08:50:16;13.30;99.90
24452;DHT22;13350;50.984;5.822;2023-03-23T08:52:44;13.30;99.90
24452;DHT22;13350;50.984;5.822;2023-03-23T08:55:13;13.20;99.90
24452;DHT22;13350;50.984;5.822;2023-03-23T08:57:41;13.10;99.90
24452;DHT22;13350;50.984;5.822;2023-03-23T09:00:13;13.20;99.90
24452;DHT22;13350;50.984;5.822;2023-03-23T09:02:44;13.10;99.90
24452;DHT22;13350;50.984;5.822;2023-03-23T09:05:13;13.10;99.90
24452;DHT22;13350;50.984;5.822;2023-03-23T09:07:43;13.20;99.90
24452;DHT22;13350;50.984;5.822;2023-03-23T09:10:11;13.20;99.90
24452;DHT22;13350;50.984;5.822;2023-03-23T09:12:39;13.20;99.90
24452;DHT22;13350;50.984;5.822;2023-03-23T09:15:08;13.20;99.90
24452;DHT22;13350;50.984;5.822;2023-03-23T09:17:36;13.20;99.90
24452;DHT22;13350;50.984;5.822;2023-03-23T09:20:07;12.90;99.90
24452;DHT22;13350;50.984;5.822;2023-03-23T09:22:37;12.60;99.90
24452;DHT22;13350;50.984;5.822;2023-03-23T09:25:06;12.30;99.90
24452;DHT22;13350;50.984;5.822;2023-03-23T09:27:34;12.20;99.90
24452;DHT22;13350;50.984;5.822;2023-03-23T09:30:03;12.10;99.90
24452;DHT22;13350;50.984;5.822;2023-03-23T09:32:32;12.10;99.90
24452;DHT22;13350;50.984;5.822;2023-03-23T09:35:00;12.10;99.90
24452;DHT22;13350;50.984;5.822;2023-03-23T09:37:29;12.20;99.90
24452;DHT22;13350;50.984;5.822;2023-03-23T09:39:57;12.20;99.90
24452;DHT22;13350;50.984;5.822;2023-03-23T09:42:36;12.20;99.90
24452;DHT22;13350;50.984;5.822;2023-03-23T09:45:12;12.20;99.90
24452;DHT22;13350;50.984;5.822;2023-03-23T09:47:52;12.10;99.90
24452;DHT22;13350;50.984;5.822;2023-03-23T09:50:24;11.50;99.90
24452;DHT22;13350;50.984;5.822;2023-03-23T09:52:56;10.90;99.90
24452;DHT22;13350;50.984;5.822;2023-03-23T09:55:24;10.60;99.90
24452;DHT22;13350;50.984;5.822;2023-03-23T09:57:57;10.40;99.90
24452;DHT22;13350;50.984;5.822;2023-03-23T10:00:30;10.40;99.90
24452;DHT22;13350;50.984;5.822;2023-03-23T10:03:02;10.30;99.90
24452;DHT22;13350;50.984;5.822;2023-03-23T10:05:34;10.20;99.90
24452;DHT22;13350;50.984;5.822;2023-03-23T10:08:10;10.20;99.90
24452;DHT22;13350;50.984;5.822;2023-03-23T10:10:45;10.20;99.90
24452;DHT22;13350;50.984;5.822;2023-03-23T10:13:23;10.20;99.90
24452;DHT22;13350;50.984;5.822;2023-03-23T10:15:54;10.30;99.90
24452;DHT22;13350;50.984;5.822;2023-03-23T10:18:27;10.30;99.90
24452;DHT22;13350;50.984;5.822;2023-03-23T10:20:58;10.40;99.90
24452;DHT22;13350;50.984;5.822;2023-03-23T10:23:54;10.40;99.90
24452;DHT22;13350;50.984;5.822;2023-03-23T10:26:37;10.40;99.90
24452;DHT22;13350;50.984;5.822;2023-03-23T10:29:16;10.60;99.90
24452;DHT22;13350;50.984;5.822;2023-03-23T10:31:49;11.00;99.90
24452;DHT22;13350;50.984;5.822;2023-03-23T10:34:22;11.30;99.90
24452;DHT22;13350;50.984;5.822;2023-03-23T10:37:00;11.30;99.90
24452;DHT22;13350;50.984;5.822;2023-03-23T10:39:32;11.10;99.90
24452;DHT22;13350;50.984;5.822;2023-03-23T10:42:01;11.20;99.90
24452;DHT22;13350;50.984;5.822;2023-03-23T10:44:33;11.20;99.90
24452;DHT22;13350;50.984;5.822;2023-03-23T10:47:02;11.20;99.90
24452;DHT22;13350;50.984;5.822;2023-03-23T10:49:35;11.20;99.90
24452;DHT22;13350;50.984;5.822;2023-03-23T10:52:11;11.30;99.90
24452;DHT22;13350;50.984;5.822;2023-03-23T10:54:50;11.30;99.90
24452;DHT22;13350;50.984;5.822;2023-03-23T10:57:24;11.00;99.90
24452;DHT22;13350;50.984;5.822;2023-03-23T11:00:02;10.90;99.90
24452;DHT22;13350;50.984;5.822;2023-03-23T11:02:35;10.80;99.90
24452;DHT22;13350;50.984;5.822;2023-03-23T11:05:09;10.80;99.90
24452;DHT22;13350;50.984;5.822;2023-03-23T11:07:40;10.70;99.90
24452;DHT22;13350;50.984;5.822;2023-03-23T11:10:18;10.70;99.90
24452;DHT22;13350;50.984;5.822;2023-03-23T11:12:47;10.80;99.90
24452;DHT22;13350;50.984;5.822;2023-03-23T11:15:34;10.80;99.90
24452;DHT22;13350;50.984;5.822;2023-03-23T11:18:04;10.80;99.90
24452;DHT22;13350;50.984;5.822;2023-03-23T11:20:36;10.80;99.90
24452;DHT22;13350;50.984;5.822;2023-03-23T11:23:19;10.60;99.90
24452;DHT22;13350;50.984;5.822;2023-03-23T11:25:55;10.70;99.90
24452;DHT22;13350;50.984;5.822;2023-03-23T11:28:28;10.70;99.90
24452;DHT22;13350;50.984;5.822;2023-03-23T11:30:58;10.80;99.90
24452;DHT22;13350;50.984;5.822;2023-03-23T11:33:29;11.00;99.90
24452;DHT22;13350;50.984;5.822;2023-03-23T11:35:57;10.80;99.90
24452;DHT22;13350;50.984;5.822;2023-03-23T11:38:25;11.00;99.90
24452;DHT22;13350;50.984;5.822;2023-03-23T11:40:55;11.00;99.90
24452;DHT22;13350;50.984;5.822;2023-03-23T11:43:25;11.00;99.90
24452;DHT22;13350;50.984;5.822;2023-03-23T11:46:01;11.20;99.90
24452;DHT22;13350;50.984;5.822;2023-03-23T11:48:35;11.40;99.90
24452;DHT22;13350;50.984;5.822;2023-03-23T11:51:11;11.30;99.90
24452;DHT22;13350;50.984;5.822;2023-03-23T11:53:47;11.30;99.90
24452;DHT22;13350;50.984;5.822;2023-03-23T11:56:23;11.20;99.90
24452;DHT22;13350;50.984;5.822;2023-03-23T11:58:54;11.20;99.90
24452;DHT22;13350;50.984;5.822;2023-03-23T12:01:34;11.30;99.90
24452;DHT22;13350;50.984;5.822;2023-03-23T12:04:23;11.50;99.90
24452;DHT22;13350;50.984;5.822;2023-03-23T12:06:57;11.40;99.90
24452;DHT22;13350;50.984;5.822;2023-03-23T12:09:33;11.60;99.90
24452;DHT22;13350;50.984;5.822;2023-03-23T12:12:12;11.70;99.90
24452;DHT22;13350;50.984;5.822;2023-03-23T12:14:50;11.90;99.90
24452;DHT22;13350;50.984;5.822;2023-03-23T12:17:32;12.10;99.90
24452;DHT22;13350;50.984;5.822;2023-03-23T12:20:18;12.20;99.90
24452;DHT22;13350;50.984;5.822;2023-03-23T12:22:56;12.40;99.90
24452;DHT22;13350;50.984;5.822;2023-03-23T12:26:06;12.30;99.90
24452;DHT22;13350;50.984;5.822;2023-03-23T12:31:36;12.40;99.90
24452;DHT22;13350;50.984;5.822;2023-03-23T12:34:10;12.70;99.90
24452;DHT22;13350;50.984;5.822;2023-03-23T12:36:58;13.10;99.90
24452;DHT22;13350;50.984;5.822;2023-03-23T12:42:24;13.60;99.90
24452;DHT22;13350;50.984;5.822;2023-03-23T12:45:00;13.70;99.90
24452;DHT22;13350;50.984;5.822;2023-03-23T12:47:36;13.80;99.90
24452;DHT22;13350;50.984;5.822;2023-03-23T12:50:09;13.70;99.90
24452;DHT22;13350;50.984;5.822;2023-03-23T12:52:45;13.80;99.90
24452;DHT22;13350;50.984;5.822;2023-03-23T12:55:17;13.80;99.90
24452;DHT22;13350;50.984;5.822;2023-03-23T12:57:50;13.80;99.90
24452;DHT22;13350;50.984;5.822;2023-03-23T13:00:24;13.70;99.90
24452;DHT22;13350;50.984;5.822;2023-03-23T13:02:57;13.90;99.90
24452;DHT22;13350;50.984;5.822;2023-03-23T13:05:35;14.00;99.90
24452;DHT22;13350;50.984;5.822;2023-03-23T13:08:09;13.60;99.90
24452;DHT22;13350;50.984;5.822;2023-03-23T13:10:41;13.40;99.90
24452;DHT22;13350;50.984;5.822;2023-03-23T13:13:14;13.40;99.90
24452;DHT22;13350;50.984;5.822;2023-03-23T13:15:58;13.50;99.90
24452;DHT22;13350;50.984;5.822;2023-03-23T13:18:33;13.70;99.90
24452;DHT22;13350;50.984;5.822;2023-03-23T13:21:12;13.60;99.90
24452;DHT22;13350;50.984;5.822;2023-03-23T13:23:44;13.80;99.90
24452;DHT22;13350;50.984;5.822;2023-03-23T13:26:13;14.20;99.90
24452;DHT22;13350;50.984;5.822;2023-03-23T13:28:51;14.40;99.90
24452;DHT22;13350;50.984;5.822;2023-03-23T13:31:24;14.20;99.90
24452;DHT22;13350;50.984;5.822;2023-03-23T13:34:00;14.30;99.90
24452;DHT22;13350;50.984;5.822;2023-03-23T13:36:30;14.20;99.90
24452;DHT22;13350;50.984;5.822;2023-03-23T13:39:00;14.10;99.90
24452;DHT22;13350;50.984;5.822;2023-03-23T13:41:30;14.00;99.90
24452;DHT22;13350;50.984;5.822;2023-03-23T13:44:24;14.10;99.90
24452;DHT22;13350;50.984;5.822;2023-03-23T13:47:07;14.10;99.90
24452;DHT22;13350;50.984;5.822;2023-03-23T13:49:45;14.20;99.90
24452;DHT22;13350;50.984;5.822;2023-03-23T13:52:24;13.90;99.90
24452;DHT22;13350;50.984;5.822;2023-03-23T13:55:17;14.00;99.90
24452;DHT22;13350;50.984;5.822;2023-03-23T13:57:55;13.50;99.90
24452;DHT22;13350;50.984;5.822;2023-03-23T14:00:33;13.30;99.90
24452;DHT22;13350;50.984;5.822;2023-03-23T14:03:05;13.20;99.90
24452;DHT22;13350;50.984;5.822;2023-03-23T14:05:35;13.10;99.90
24452;DHT22;13350;50.984;5.822;2023-03-23T14:08:12;13.00;99.90
24452;DHT22;13350;50.984;5.822;2023-03-23T14:10:41;12.90;99.90
24452;DHT22;13350;50.984;5.822;2023-03-23T14:13:17;13.00;99.90
24452;DHT22;13350;50.984;5.822;2023-03-23T14:15:56;13.30;99.90
24452;DHT22;13350;50.984;5.822;2023-03-23T14:18:29;13.30;99.90
24452;DHT22;13350;50.984;5.822;2023-03-23T14:20:57;13.10;99.90
24452;DHT22;13350;50.984;5.822;2023-03-23T14:23:28;13.00;99.90
24452;DHT22;13350;50.984;5.822;2023-03-23T14:26:00;13.10;99.90
24452;DHT22;13350;50.984;5.822;2023-03-23T14:28:37;13.20;99.90
24452;DHT22;13350;50.984;5.822;2023-03-23T14:31:08;13.30;99.90
24452;DHT22;13350;50.984;5.822;2023-03-23T14:33:40;14.40;99.90
24452;DHT22;13350;50.984;5.822;2023-03-23T14:36:08;15.10;99.90
24452;DHT22;13350;50.984;5.822;2023-03-23T14:38:36;15.50;99.90
24452;DHT22;13350;50.984;5.822;2023-03-23T14:41:05;16.10;99.90
24452;DHT22;13350;50.984;5.822;2023-03-23T14:43:34;16.00;99.90
24452;DHT22;13350;50.984;5.822;2023-03-23T14:46:06;15.80;99.90
24452;DHT22;13350;50.984;5.822;2023-03-23T14:48:34;15.80;99.90
24452;DHT22;13350;50.984;5.822;2023-03-23T14:51:05;15.60;99.90
24452;DHT22;13350;50.984;5.822;2023-03-23T14:53:36;15.50;99.90
24452;DHT22;13350;50.984;5.822;2023-03-23T14:56:10;15.50;99.90
24452;DHT22;13350;50.984;5.822;2023-03-23T14:58:38;15.10;99.90
24452;DHT22;13350;50.984;5.822;2023-03-23T15:01:08;14.90;99.90
24452;DHT22;13350;50.984;5.822;2023-03-23T15:03:38;14.80;99.90
24452;DHT22;13350;50.984;5.822;2023-03-23T15:06:13;14.90;99.90
24452;DHT22;13350;50.984;5.822;2023-03-23T15:08:41;15.30;99.90
24452;DHT22;13350;50.984;5.822;2023-03-23T15:11:12;15.70;99.90
24452;DHT22;13350;50.984;5.822;2023-03-23T15:13:44;15.50;99.90
24452;DHT22;13350;50.984;5.822;2023-03-23T15:16:17;15.20;99.90
24452;DHT22;13350;50.984;5.822;2023-03-23T15:18:50;15.10;99.90
24452;DHT22;13350;50.984;5.822;2023-03-23T15:21:24;15.00;99.90
24452;DHT22;13350;50.984;5.822;2023-03-23T15:23:52;15.00;99.90
24452;DHT22;13350;50.984;5.822;2023-03-23T15:26:31;15.00;99.90
24452;DHT22;13350;50.984;5.822;2023-03-23T15:29:16;15.10;99.90
24452;DHT22;13350;50.984;5.822;2023-03-23T15:31:44;15.20;99.90
24452;DHT22;13350;50.984;5.822;2023-03-23T15:34:17;15.20;99.90
24452;DHT22;13350;50.984;5.822;2023-03-23T15:36:52;15.20;99.90
24452;DHT22;13350;50.984;5.822;2023-03-23T15:39:21;15.20;99.90
24452;DHT22;13350;50.984;5.822;2023-03-23T15:41:49;15.20;99.90
24452;DHT22;13350;50.984;5.822;2023-03-23T15:44:23;15.10;99.90
24452;DHT22;13350;50.984;5.822;2023-03-23T15:46:52;15.30;99.90
24452;DHT22;13350;50.984;5.822;2023-03-23T15:49:22;15.20;99.90
24452;DHT22;13350;50.984;5.822;2023-03-23T15:51:51;15.10;99.90
24452;DHT22;13350;50.984;5.822;2023-03-23T15:54:18;15.00;99.90
24452;DHT22;13350;50.984;5.822;2023-03-23T15:56:45;15.10;99.90
24452;DHT22;13350;50.984;5.822;2023-03-23T15:59:13;15.10;99.90
24452;DHT22;13350;50.984;5.822;2023-03-23T16:01:41;15.10;99.90